Аэропорт: Псков. Псков

ICAO: ULOO

METAR:
2019/05/25 20:00
ULOO 252000Z AUTO 24004MPS 8000 // NCD 13/05 Q1005 RMK QFE749
METAR:
2019/05/04 15:57
TAF 
      AMD TAF 
      AMD ULOO 041654Z 0415/0524 CNL